createdAt,value
2019-02-12T00:01:01.982Z,6.95
2019-02-12T00:03:31.763Z,6.10
2019-02-12T00:06:01.680Z,6.25
2019-02-12T00:08:31.577Z,6.05
2019-02-12T00:11:01.462Z,6.40
2019-02-12T00:13:31.366Z,5.65
2019-02-12T00:16:02.310Z,5.83
2019-02-12T00:18:32.122Z,5.70
2019-02-12T00:21:09.024Z,5.87
2019-02-12T00:23:33.410Z,5.80
2019-02-12T00:26:03.251Z,6.40
2019-02-12T00:28:33.070Z,5.95
2019-02-12T00:31:02.870Z,5.90
2019-02-12T00:33:32.693Z,5.83
2019-02-12T00:36:02.590Z,5.75
2019-02-12T00:38:32.406Z,5.70
2019-02-12T00:41:02.225Z,5.50
2019-02-12T00:43:32.141Z,5.25
2019-02-12T00:46:01.905Z,5.08
2019-02-12T00:48:31.691Z,5.67
2019-02-12T00:51:01.471Z,5.50
2019-02-12T00:53:31.250Z,5.40
2019-02-12T00:56:01.030Z,5.35
2019-02-12T00:58:30.902Z,5.03
2019-02-12T01:01:00.693Z,5.42
2019-02-12T01:03:30.489Z,4.87
2019-02-12T01:06:00.281Z,5.50
2019-02-12T01:08:30.195Z,5.60
2019-02-12T01:11:00.066Z,5.70
2019-02-12T01:13:29.949Z,5.58
2019-02-12T01:15:59.762Z,5.80
2019-02-12T01:18:29.562Z,5.30
2019-02-12T01:20:59.358Z,5.30
2019-02-12T01:23:29.173Z,5.72
2019-02-12T01:25:58.988Z,5.25
2019-02-12T01:28:28.758Z,5.90
2019-02-12T01:30:58.566Z,5.65
2019-02-12T01:33:28.403Z,5.30
2019-02-12T01:35:58.190Z,5.55
2019-02-12T01:38:28.118Z,5.83
2019-02-12T01:40:58.021Z,6.00
2019-02-12T01:43:27.852Z,6.30
2019-02-12T01:45:57.654Z,6.12
2019-02-12T01:48:27.462Z,6.37
2019-02-12T01:50:57.382Z,6.45
2019-02-12T01:53:27.199Z,6.17
2019-02-12T01:55:57.055Z,5.90
2019-02-12T01:58:26.877Z,6.75
2019-02-12T02:00:56.680Z,6.87
2019-02-12T02:03:26.659Z,6.20
2019-02-12T02:05:56.498Z,6.47
2019-02-12T02:08:26.283Z,5.30
2019-02-12T02:10:56.101Z,6.22
2019-02-12T02:13:25.926Z,6.40
2019-02-12T02:15:55.722Z,6.10
2019-02-12T02:18:25.537Z,6.10
2019-02-12T02:20:55.368Z,6.35
2019-02-12T02:23:25.162Z,6.22
2019-02-12T02:25:54.964Z,6.13
2019-02-12T02:28:27.622Z,6.33
2019-02-12T02:30:58.559Z,6.07
2019-02-12T02:33:28.399Z,6.45
2019-02-12T02:35:59.147Z,6.17
2019-02-12T02:38:30.561Z,6.25
2019-02-12T02:41:03.137Z,6.25
2019-02-12T02:43:33.051Z,5.72
2019-02-12T02:46:03.005Z,5.92
2019-02-12T02:48:32.788Z,6.12
2019-02-12T02:51:04.999Z,5.80
2019-02-12T02:53:34.851Z,5.90
2019-02-12T02:56:04.771Z,5.50
2019-02-12T02:58:34.559Z,5.40
2019-02-12T03:01:04.474Z,5.97
2019-02-12T03:03:34.318Z,5.53
2019-02-12T03:06:04.130Z,5.20
2019-02-12T03:08:33.913Z,5.30
2019-02-12T03:11:03.823Z,5.13
2019-02-12T03:13:33.798Z,4.87
2019-02-12T03:16:03.591Z,5.12
2019-02-12T03:18:33.387Z,4.78
2019-02-12T03:21:03.328Z,5.20
2019-02-12T03:23:33.093Z,4.72
2019-02-12T03:26:02.987Z,4.80
2019-02-12T03:28:32.807Z,4.78
2019-02-12T03:31:02.628Z,5.22
2019-02-12T03:33:32.423Z,4.87
2019-02-12T03:36:02.382Z,5.50
2019-02-12T03:38:32.161Z,5.50
2019-02-12T03:41:02.046Z,5.37
2019-02-12T03:43:31.981Z,5.22
2019-02-12T03:46:01.765Z,5.83
2019-02-12T03:48:31.586Z,5.37
2019-02-12T03:51:01.418Z,5.30
2019-02-12T03:53:31.214Z,5.70
2019-02-12T03:56:00.982Z,5.55
2019-02-12T03:58:30.746Z,5.20
2019-02-12T04:01:00.525Z,5.83
2019-02-12T04:03:30.858Z,5.72
2019-02-12T04:06:00.732Z,5.33
2019-02-12T04:08:30.538Z,5.20
2019-02-12T04:11:01.927Z,5.33
2019-02-12T04:13:31.785Z,5.42
2019-02-12T04:16:01.556Z,5.15
2019-02-12T04:18:31.447Z,5.37
2019-02-12T04:21:01.327Z,5.40
2019-02-12T04:23:31.227Z,5.50
2019-02-12T04:26:01.005Z,5.17
2019-02-12T04:28:30.823Z,5.57
2019-02-12T04:31:00.616Z,5.60
2019-02-12T04:33:30.418Z,5.60
2019-02-12T04:36:00.226Z,5.87
2019-02-12T04:38:30.011Z,5.92
2019-02-12T04:40:59.814Z,5.17
2019-02-12T04:43:29.569Z,5.97
2019-02-12T04:45:59.466Z,5.40
2019-02-12T04:48:29.222Z,5.50
2019-02-12T04:50:59.162Z,5.30
2019-02-12T04:53:28.992Z,5.75
2019-02-12T04:55:58.940Z,5.90
2019-02-12T04:58:28.751Z,5.80
2019-02-12T05:00:59.464Z,5.15
2019-02-12T05:03:29.422Z,6.47
2019-02-12T05:05:59.293Z,5.42
2019-02-12T05:08:53.693Z,6.15
2019-02-12T05:11:23.617Z,5.08
2019-02-12T05:13:53.419Z,5.35
2019-02-12T05:16:23.293Z,5.25
2019-02-12T05:18:53.181Z,5.33
2019-02-12T05:21:23.012Z,5.87
2019-02-12T05:23:52.926Z,6.17
2019-02-12T05:26:22.699Z,5.20
2019-02-12T05:28:52.488Z,4.92
2019-02-12T05:31:22.263Z,5.10
2019-02-12T05:33:52.052Z,4.97
2019-02-12T05:36:21.901Z,5.70
2019-02-12T05:38:51.686Z,5.60
2019-02-12T05:41:21.487Z,4.80
2019-02-12T05:43:51.295Z,5.35
2019-02-12T05:46:21.194Z,5.33
2019-02-12T05:48:51.020Z,5.45
2019-02-12T05:51:20.896Z,5.17
2019-02-12T05:53:50.671Z,4.97
2019-02-12T05:56:20.466Z,4.80
2019-02-12T05:58:50.349Z,5.30
2019-02-12T06:01:20.158Z,5.50
2019-02-12T06:03:49.947Z,5.17
2019-02-12T06:06:20.030Z,5.40
2019-02-12T06:08:49.798Z,5.17
2019-02-12T06:11:19.681Z,5.10
2019-02-12T06:13:49.489Z,4.95
2019-02-12T06:16:19.514Z,5.22
2019-02-12T06:18:49.323Z,5.03
2019-02-12T06:21:19.201Z,4.97
2019-02-12T06:23:49.023Z,4.70
2019-02-12T06:26:18.833Z,5.03
2019-02-12T06:29:10.471Z,4.90
2019-02-12T06:31:40.493Z,4.90
2019-02-12T06:34:10.290Z,5.12
2019-02-12T06:36:40.115Z,5.12
2019-02-12T06:39:09.903Z,4.62
2019-02-12T06:41:39.673Z,4.55
2019-02-12T06:44:10.527Z,4.92
2019-02-12T06:46:40.379Z,4.80
2019-02-12T06:49:10.230Z,4.63
2019-02-12T06:51:40.202Z,5.22
2019-02-12T06:54:10.126Z,5.03
2019-02-12T06:56:39.993Z,4.85
2019-02-12T06:59:09.771Z,4.95
2019-02-12T07:01:39.586Z,4.70
2019-02-12T07:04:13.567Z,4.60
2019-02-12T07:06:52.943Z,4.58
2019-02-12T07:09:33.812Z,5.00
2019-02-12T07:12:44.059Z,4.80
2019-02-12T07:15:21.439Z,4.58
2019-02-12T07:18:55.051Z,4.78
2019-02-12T07:21:40.097Z,5.00
2019-02-12T07:24:17.378Z,4.83
2019-02-12T07:27:22.847Z,4.80
2019-02-12T07:30:43.078Z,5.08
2019-02-12T07:33:48.499Z,4.83
2019-02-12T07:37:06.974Z,4.90
2019-02-12T07:39:52.921Z,5.45
2019-02-12T07:43:12.229Z,5.97
2019-02-12T07:46:05.109Z,5.45
2019-02-12T07:48:56.135Z,4.70
2019-02-12T07:52:08.162Z,4.90
2019-02-12T07:55:25.319Z,4.60
2019-02-12T07:58:38.844Z,4.95
2019-02-12T08:01:51.709Z,4.58
2019-02-12T08:04:58.219Z,4.80
2019-02-12T08:08:04.204Z,4.80
2019-02-12T08:11:10.289Z,4.60
2019-02-12T08:14:16.121Z,5.37
2019-02-12T08:17:10.658Z,4.25
2019-02-12T08:20:15.078Z,5.00
2019-02-12T08:23:20.478Z,4.65
2019-02-12T08:26:18.231Z,4.72
2019-02-12T08:29:44.372Z,4.80
2019-02-12T08:32:48.525Z,4.90
2019-02-12T08:35:57.530Z,4.50
2019-02-12T08:39:14.978Z,4.70
2019-02-12T08:42:24.909Z,4.55
2019-02-12T08:45:21.682Z,4.85
2019-02-12T08:48:19.750Z,5.62
2019-02-12T08:51:26.707Z,5.03
2019-02-12T08:54:33.930Z,5.27
2019-02-12T08:57:30.829Z,5.20
2019-02-12T09:00:25.402Z,4.72
2019-02-12T09:03:47.643Z,4.30
2019-02-12T09:06:54.717Z,4.85
2019-02-12T09:10:00.006Z,4.58
2019-02-12T09:13:29.169Z,5.10
2019-02-12T09:16:36.447Z,5.17
2019-02-12T09:19:36.142Z,4.97
2019-02-12T09:23:02.029Z,5.65
2019-02-12T09:25:58.515Z,4.97
2019-02-12T09:28:49.720Z,5.75
2019-02-12T09:31:56.026Z,5.30
2019-02-12T09:35:00.682Z,5.42
2019-02-12T09:38:07.210Z,5.80
2019-02-12T09:41:14.362Z,5.40
2019-02-12T09:44:21.489Z,5.25
2019-02-12T09:47:28.671Z,5.65
2019-02-12T09:50:31.111Z,6.10
2019-02-12T09:53:38.123Z,5.42
2019-02-12T09:56:53.138Z,5.70
2019-02-12T10:00:08.260Z,5.78
2019-02-12T10:03:08.186Z,5.47
2019-02-12T10:06:22.213Z,4.90
2019-02-12T10:09:30.250Z,4.60
2019-02-12T10:12:25.964Z,5.60
2019-02-12T10:15:52.178Z,5.28
2019-02-12T10:18:45.678Z,5.45
2019-02-12T10:21:47.878Z,5.20
2019-02-12T10:24:47.986Z,5.20
2019-02-12T10:27:43.620Z,5.60
2019-02-12T10:30:46.789Z,5.28
2019-02-12T10:33:16.710Z,5.03
2019-02-12T10:35:46.543Z,5.65
2019-02-12T10:38:16.432Z,5.08
2019-02-12T10:40:46.234Z,4.85
2019-02-12T10:43:16.006Z,4.97
2019-02-12T10:45:45.940Z,5.40
2019-02-12T10:48:15.861Z,4.60
2019-02-12T10:50:45.786Z,5.20
2019-02-12T10:53:15.703Z,4.93
2019-02-12T10:55:45.511Z,5.12
2019-02-12T10:58:15.350Z,5.22
2019-02-12T11:00:45.205Z,5.45
2019-02-12T11:03:15.016Z,5.28
2019-02-12T11:05:44.874Z,4.97
2019-02-12T11:08:14.798Z,4.55
2019-02-12T11:10:45.150Z,4.50
2019-02-12T11:13:16.230Z,4.58
2019-02-12T11:15:46.189Z,4.83
2019-02-12T11:18:16.090Z,4.83
2019-02-12T11:20:45.892Z,4.87
2019-02-12T11:23:15.686Z,4.47
2019-02-12T11:25:45.595Z,4.70
2019-02-12T11:28:15.534Z,4.85
2019-02-12T11:30:46.573Z,4.58
2019-02-12T11:33:16.435Z,4.93
2019-02-12T11:35:47.119Z,4.67
2019-02-12T11:38:19.268Z,4.62
2019-02-12T11:40:49.035Z,4.70
2019-02-12T11:43:18.863Z,4.85
2019-02-12T11:45:48.664Z,4.83
2019-02-12T11:48:18.468Z,4.60
2019-02-12T11:50:48.397Z,4.35
2019-02-12T11:53:18.210Z,4.37
2019-02-12T11:55:48.010Z,4.90
2019-02-12T11:58:17.867Z,4.45
2019-02-12T12:00:53.047Z,4.10
2019-02-12T12:03:22.889Z,4.35
2019-02-12T12:05:52.728Z,4.40
2019-02-12T12:08:22.569Z,4.17
2019-02-12T12:10:52.404Z,3.92
2019-02-12T12:13:22.271Z,4.03
2019-02-12T12:15:52.138Z,4.05
2019-02-12T12:18:22.081Z,4.42
2019-02-12T12:20:51.864Z,3.95
2019-02-12T12:23:22.827Z,3.60
2019-02-12T12:25:52.712Z,4.15
2019-02-12T12:28:22.562Z,4.00
2019-02-12T12:30:52.362Z,3.80
2019-02-12T12:33:23.223Z,4.08
2019-02-12T12:35:53.045Z,3.37
2019-02-12T12:38:22.938Z,3.80
2019-02-12T12:40:52.805Z,3.65
2019-02-12T12:43:22.598Z,3.43
2019-02-12T12:45:52.367Z,3.60
2019-02-12T12:48:22.200Z,3.70
2019-02-12T12:50:52.073Z,4.20
2019-02-12T12:53:21.914Z,3.80
2019-02-12T12:55:51.889Z,3.40
2019-02-12T12:58:21.749Z,3.50
2019-02-12T13:00:51.588Z,3.10
2019-02-12T13:03:21.344Z,2.70
2019-02-12T13:05:51.218Z,3.37
2019-02-12T13:08:22.174Z,3.10
2019-02-12T13:10:51.974Z,3.42
2019-02-12T13:13:21.794Z,3.60
2019-02-12T13:15:51.562Z,2.90
2019-02-12T13:18:21.377Z,2.70
2019-02-12T13:20:51.182Z,3.08
2019-02-12T13:23:21.011Z,3.40
2019-02-12T13:25:50.824Z,3.20
2019-02-12T13:28:20.614Z,3.20
2019-02-12T13:30:50.510Z,3.20
2019-02-12T13:33:20.286Z,3.20
2019-02-12T13:35:50.171Z,3.10
2019-02-12T13:38:20.074Z,2.87
2019-02-12T13:40:49.901Z,3.50
2019-02-12T13:43:19.717Z,3.58
2019-02-12T13:45:49.585Z,3.22
2019-02-12T13:48:19.395Z,3.22
2019-02-12T13:50:49.281Z,3.60
2019-02-12T13:53:19.193Z,3.27
2019-02-12T13:55:49.204Z,3.27
2019-02-12T13:58:19.055Z,3.00
2019-02-12T14:00:48.856Z,2.92
2019-02-12T14:03:22.480Z,3.60
2019-02-12T14:05:50.200Z,3.37
2019-02-12T14:08:20.071Z,3.25
2019-02-12T14:10:49.943Z,3.27
2019-02-12T14:13:19.867Z,3.10
2019-02-12T14:15:49.666Z,3.27
2019-02-12T14:18:19.528Z,3.00
2019-02-12T14:20:49.373Z,3.52
2019-02-12T14:23:19.183Z,4.20
2019-02-12T14:25:49.041Z,3.37
2019-02-12T14:28:18.962Z,3.13
2019-02-12T14:30:48.849Z,3.05
2019-02-12T14:33:18.662Z,3.20
2019-02-12T14:35:48.481Z,3.25
2019-02-12T14:38:19.474Z,2.92
2019-02-12T14:40:49.387Z,3.30
2019-02-12T14:43:19.252Z,2.98
2019-02-12T14:45:49.131Z,3.00
2019-02-12T14:48:19.006Z,3.30
2019-02-12T14:50:49.208Z,3.37
2019-02-12T14:53:19.121Z,3.75
2019-02-12T14:55:48.925Z,3.20
2019-02-12T14:58:18.791Z,3.10
2019-02-12T15:00:48.661Z,2.90
2019-02-12T15:03:18.524Z,2.97
2019-02-12T15:05:48.429Z,3.20
2019-02-12T15:08:18.314Z,3.08
2019-02-12T15:10:48.221Z,3.22
2019-02-12T15:13:18.070Z,3.00
2019-02-12T15:15:47.888Z,3.20
2019-02-12T15:18:17.765Z,3.37
2019-02-12T15:20:47.629Z,3.47
2019-02-12T15:23:17.433Z,3.67
2019-02-12T15:25:47.361Z,3.27
2019-02-12T15:28:17.297Z,3.15
2019-02-12T15:30:47.119Z,3.17
2019-02-12T15:33:16.990Z,3.15
2019-02-12T15:35:47.019Z,3.10
2019-02-12T15:38:16.941Z,3.00
2019-02-12T15:40:46.809Z,3.40
2019-02-12T15:43:16.657Z,3.00
2019-02-12T15:45:46.523Z,2.75
2019-02-12T15:48:16.516Z,2.80
2019-02-12T15:50:46.489Z,2.80
2019-02-12T15:53:16.290Z,3.25
2019-02-12T15:55:51.200Z,3.05
2019-02-12T15:58:17.861Z,3.00
2019-02-12T16:00:47.680Z,2.65
2019-02-12T16:03:18.462Z,3.08
2019-02-12T16:05:49.125Z,2.85
2019-02-12T16:08:18.988Z,3.02
2019-02-12T16:10:48.910Z,3.52
2019-02-12T16:13:18.789Z,2.90
2019-02-12T16:15:48.644Z,2.90
2019-02-12T16:18:21.401Z,3.07
2019-02-12T16:21:04.586Z,3.83
2019-02-12T16:23:34.444Z,3.62
2019-02-12T16:26:04.331Z,4.80
2019-02-12T16:28:34.253Z,6.05
2019-02-12T16:31:04.318Z,5.40
2019-02-12T16:33:34.141Z,4.00
2019-02-12T16:36:03.948Z,3.52
2019-02-12T16:38:33.773Z,3.60
2019-02-12T16:41:03.566Z,3.52
2019-02-12T16:43:33.378Z,3.37
2019-02-12T16:46:09.873Z,3.27
2019-02-12T16:48:39.745Z,3.55
2019-02-12T16:51:09.615Z,3.17
2019-02-12T16:53:39.534Z,3.40
2019-02-12T16:56:09.614Z,3.33
2019-02-12T16:58:39.533Z,3.33
2019-02-12T17:01:09.323Z,3.02
2019-02-12T17:03:39.135Z,3.55
2019-02-12T17:06:10.123Z,3.30
2019-02-12T17:08:40.049Z,2.98
2019-02-12T17:11:09.986Z,3.25
2019-02-12T17:13:39.852Z,3.90
2019-02-12T17:16:09.735Z,4.58
2019-02-12T17:18:43.476Z,3.80
2019-02-12T17:21:13.254Z,3.62
2019-02-12T17:23:43.212Z,3.60
2019-02-12T17:26:16.500Z,4.30
2019-02-12T17:28:44.797Z,4.00
2019-02-12T17:31:16.984Z,3.67
2019-02-12T17:33:46.795Z,3.87
2019-02-12T17:36:16.605Z,3.73
2019-02-12T17:38:46.514Z,3.30
2019-02-12T17:41:17.434Z,3.67
2019-02-12T17:43:47.251Z,3.17
2019-02-12T17:46:17.196Z,3.22
2019-02-12T17:48:47.188Z,3.13
2019-02-12T17:51:17.080Z,3.30
2019-02-12T17:53:48.731Z,3.52
2019-02-12T17:56:25.003Z,3.27
2019-02-12T17:58:54.399Z,3.08
2019-02-12T18:01:24.262Z,3.00
2019-02-12T18:03:54.197Z,3.77
2019-02-12T18:06:24.086Z,3.60
2019-02-12T18:08:53.932Z,3.50
2019-02-12T18:11:23.761Z,3.55
2019-02-12T18:13:53.777Z,3.52
2019-02-12T18:16:23.723Z,3.10
2019-02-12T18:18:53.586Z,3.70
2019-02-12T18:21:23.547Z,3.45
2019-02-12T18:23:56.769Z,3.60
2019-02-12T18:26:33.182Z,3.45
2019-02-12T18:28:58.312Z,3.62
2019-02-12T18:31:28.202Z,3.80
2019-02-12T18:33:58.162Z,3.73
2019-02-12T18:36:28.103Z,3.40
2019-02-12T18:38:58.059Z,3.40
2019-02-12T18:41:27.894Z,3.70
2019-02-12T18:43:57.827Z,3.87
2019-02-12T18:46:27.646Z,3.87
2019-02-12T18:48:57.604Z,3.62
2019-02-12T18:51:27.443Z,3.75
2019-02-12T18:54:02.707Z,3.83
2019-02-12T18:56:41.299Z,3.50
2019-02-12T18:59:04.918Z,3.40
2019-02-12T19:01:34.732Z,4.00
2019-02-12T19:04:04.643Z,3.80
2019-02-12T19:06:35.543Z,4.00
2019-02-12T19:09:08.818Z,4.40
2019-02-12T19:11:48.457Z,5.22
2019-02-12T19:14:13.083Z,5.05
2019-02-12T19:16:44.129Z,4.75
2019-02-12T19:19:13.954Z,4.80
2019-02-12T19:21:43.817Z,5.20
2019-02-12T19:24:13.806Z,5.17
2019-02-12T19:26:49.779Z,4.78
2019-02-12T19:29:16.535Z,3.80
2019-02-12T19:31:46.527Z,4.20
2019-02-12T19:34:16.433Z,4.33
2019-02-12T19:36:47.162Z,4.37
2019-02-12T19:39:17.992Z,4.40
2019-02-12T19:41:47.851Z,4.10
2019-02-12T19:44:17.805Z,4.03
2019-02-12T19:46:47.754Z,4.12
2019-02-12T19:49:17.722Z,4.10
2019-02-12T19:51:47.707Z,4.33
2019-02-12T19:54:17.735Z,4.50
2019-02-12T19:56:47.548Z,4.20
2019-02-12T19:59:17.354Z,4.43
2019-02-12T20:01:47.294Z,4.47
2019-02-12T20:04:17.257Z,4.30
2019-02-12T20:06:47.212Z,4.58
2019-02-12T20:09:22.166Z,5.08
2019-02-12T20:11:52.031Z,4.30
2019-02-12T20:14:22.003Z,4.33
2019-02-12T20:16:53.223Z,4.42
2019-02-12T20:19:23.064Z,4.97
2019-02-12T20:21:54.092Z,4.33
2019-02-12T20:24:24.040Z,4.40
2019-02-12T20:26:54.061Z,4.47
2019-02-12T20:29:23.968Z,4.60
2019-02-12T20:31:53.956Z,4.58
2019-02-12T20:34:27.016Z,4.35
2019-02-12T20:36:59.075Z,4.00
2019-02-12T20:39:29.087Z,4.35
2019-02-12T20:41:59.001Z,4.50
2019-02-12T20:44:28.765Z,4.12
2019-02-12T20:46:58.658Z,4.50
2019-02-12T20:49:28.509Z,4.58
2019-02-12T20:51:58.416Z,4.30
2019-02-12T20:54:28.344Z,5.03
2019-02-12T20:56:58.486Z,7.47
2019-02-12T20:59:28.530Z,11.55
2019-02-12T21:01:58.483Z,8.85
2019-02-12T21:04:28.375Z,16.35
2019-02-12T21:06:58.320Z,14.53
2019-02-12T21:09:28.170Z,5.20
2019-02-12T21:11:58.070Z,5.78
2019-02-12T21:14:28.022Z,6.42
2019-02-12T21:16:57.898Z,4.83
2019-02-12T21:19:27.899Z,5.55
2019-02-12T21:21:57.935Z,5.58
2019-02-12T21:24:27.889Z,6.45
2019-02-12T21:26:57.775Z,5.15
2019-02-12T21:29:27.683Z,5.45
2019-02-12T21:31:57.686Z,5.55
2019-02-12T21:34:27.682Z,6.05
2019-02-12T21:36:57.593Z,6.22
2019-02-12T21:39:27.553Z,6.10
2019-02-12T21:41:57.492Z,7.08
2019-02-12T21:44:27.691Z,6.17
2019-02-12T21:46:57.530Z,6.17
2019-02-12T21:49:27.377Z,7.05
2019-02-12T21:51:57.253Z,7.37
2019-02-12T21:54:27.187Z,7.00
2019-02-12T21:56:57.033Z,6.67
2019-02-12T21:59:26.932Z,5.95
2019-02-12T22:01:56.770Z,5.60
2019-02-12T22:04:26.693Z,6.03
2019-02-12T22:06:56.492Z,6.25
2019-02-12T22:09:26.403Z,7.33
2019-02-12T22:11:56.240Z,5.85
2019-02-12T22:14:26.093Z,5.53
2019-02-12T22:16:55.962Z,5.70
2019-02-12T22:19:29.130Z,5.83
2019-02-12T22:21:59.170Z,5.65
2019-02-12T22:24:28.978Z,5.70
2019-02-12T22:26:58.771Z,6.53
2019-02-12T22:29:28.634Z,5.58
2019-02-12T22:31:58.522Z,6.08
2019-02-12T22:34:28.350Z,5.12
2019-02-12T22:36:58.227Z,5.70
2019-02-12T22:39:28.134Z,5.40
2019-02-12T22:41:57.942Z,5.20
2019-02-12T22:44:27.787Z,5.20
2019-02-12T22:46:57.669Z,6.47
2019-02-12T22:49:27.494Z,5.20
2019-02-12T22:51:58.328Z,5.28
2019-02-12T22:54:28.322Z,5.53
2019-02-12T22:56:58.210Z,5.43
2019-02-12T22:59:27.986Z,5.67
2019-02-12T23:01:57.883Z,5.50
2019-02-12T23:04:27.756Z,5.50
2019-02-12T23:06:57.532Z,5.42
2019-02-12T23:09:27.527Z,5.67
2019-02-12T23:11:57.438Z,5.28
2019-02-12T23:14:30.048Z,6.20
2019-02-12T23:16:59.950Z,5.15
2019-02-12T23:19:29.738Z,5.30
2019-02-12T23:21:59.544Z,5.33
2019-02-12T23:24:29.343Z,6.10
2019-02-12T23:26:59.130Z,5.90
2019-02-12T23:29:29.093Z,5.45
2019-02-12T23:31:59.020Z,5.30
2019-02-12T23:34:28.780Z,6.07
2019-02-12T23:36:58.579Z,5.25
2019-02-12T23:39:28.467Z,6.25
2019-02-12T23:41:58.376Z,6.00
2019-02-12T23:44:28.243Z,6.20
2019-02-12T23:46:58.049Z,6.60
2019-02-12T23:49:27.862Z,5.95
2019-02-12T23:51:57.632Z,6.47
2019-02-12T23:54:28.641Z,5.72
2019-02-12T23:56:58.441Z,5.80
2019-02-12T23:59:28.197Z,5.90
